Time;durP1;ratioP1;P1;durP2;ratioP2;P2;SDS_P1;SDS_P2;PMS_P1;PMS_P2;Temp;Humidity;BMP_temperature;BMP_pressure;BME280_temperature;BME280_humidity;BME280_pressure;Samples;Min_cycle;Max_cycle;Signal;HPM_P1;HPM_P2
2023/03/17 01:46:40;;;;;;;13.73;10.00;;;;;;;18.24;75.71;98928.44;4706299;27;9322578;-63
2023/03/17 01:49:44;;;;;;;11.02;9.77;;;;;;;18.24;75.58;98933.00;5037371;28;20128;-64
2023/03/17 01:52:22;;;;;;;10.13;8.77;;;;;;;18.31;75.17;98945.25;5014515;28;20076;-63
2023/03/17 01:55:13;;;;;;;;;;;;;;;18.54;75.81;98947.09;5012043;28;20053;-63
2023/03/17 01:57:58;;;;;;;11.52;9.50;;;;;;;18.56;75.53;98952.19;5040725;28;20028;-63
2023/03/17 02:00:47;;;;;;;10.93;8.63;;;;;;;18.60;75.19;98956.03;5003991;28;20679;-65
2023/03/17 02:03:37;;;;;;;9.23;8.30;;;;;;;19.03;73.86;98947.50;5039185;28;20046;-65
2023/03/17 02:06:26;;;;;;;10.20;8.48;;;;;;;19.00;73.24;98961.38;5022686;28;20049;-65
2023/03/17 02:09:08;;;;;;;10.27;8.57;;;;;;;19.22;72.43;98960.44;5023024;28;20099;-66
2023/03/17 02:12:00;;;;;;;11.43;10.18;;;;;;;18.90;72.48;98970.03;5030612;28;20067;-65
2023/03/17 02:14:50;;;;;;;10.07;8.88;;;;;;;18.66;72.21;98977.38;5015898;28;20460;-64
2023/03/17 02:17:39;;;;;;;10.63;9.52;;;;;;;19.09;72.46;98982.22;5007074;28;20056;-66
2023/03/17 02:20:21;;;;;;;12.27;10.25;;;;;;;19.03;72.02;98991.22;5019612;28;20041;-65
2023/03/17 02:23:11;;;;;;;14.80;12.32;;;;;;;19.03;72.82;98991.22;5031484;28;20045;-65
2023/03/17 02:25:54;;;;;;;16.88;13.55;;;;;;;19.00;72.58;98998.94;5041307;28;20056;-65
2023/03/17 02:28:44;;;;;;;16.25;13.05;;;;;;;18.82;72.41;99024.91;5015628;28;20049;-65
2023/03/17 02:31:34;;;;;;;16.50;13.23;;;;;;;19.08;71.77;99033.47;5023531;28;20107;-65
2023/03/17 02:34:17;;;;;;;17.58;13.95;;;;;;;18.66;72.16;99036.41;5041178;28;20050;-68
2023/03/17 02:37:06;;;;;;;19.73;13.65;;;;;;;18.58;72.87;99039.44;5041945;28;20049;-65
2023/03/17 02:39:48;;;;;;;17.98;13.27;;;;;;;18.54;73.57;99032.94;5028069;28;20034;-65
2023/03/17 02:42:40;;;;;;;18.95;14.68;;;;;;;18.37;73.47;99051.56;5026514;28;20543;-65
2023/03/17 02:45:41;;;;;;;20.80;15.70;;;;;;;18.16;74.73;99044.09;5035577;28;20321;-62
2023/03/17 02:48:32;;;;;;;22.35;16.13;;;;;;;18.45;74.77;99049.59;5004632;28;20124;-63
2023/03/17 02:51:13;;;;;;;23.63;17.35;;;;;;;18.21;74.76;99049.59;5026721;28;20041;-63
2023/03/17 02:54:03;;;;;;;23.25;17.02;;;;;;;18.46;75.56;99068.09;5025938;28;20086;-63
2023/03/17 02:56:45;;;;;;;24.52;17.13;;;;;;;18.55;74.33;99072.09;5028015;28;20637;-62
2023/03/17 02:59:38;;;;;;;21.50;15.98;;;;;;;18.39;74.93;99078.16;5027898;28;20041;-64
2023/03/17 03:02:19;;;;;;;20.25;16.42;;;;;;;18.40;75.68;99080.59;5028021;28;20594;-63
2023/03/17 03:05:09;;;;;;;23.73;17.80;;;;;;;18.39;75.00;99083.50;5026798;28;20069;-64
2023/03/17 03:07:58;;;;;;;24.30;17.58;;;;;;;18.28;75.39;99071.72;5028271;28;20111;-62
2023/03/17 03:10:47;;;;;;;24.13;18.35;;;;;;;18.34;75.47;99078.84;5027579;28;20115;-64
2023/03/17 03:13:30;;;;;;;24.67;19.27;;;;;;;18.24;76.33;99086.63;5027111;28;20136;-63
2023/03/17 03:16:25;;;;;;;23.83;18.55;;;;;;;18.11;76.06;99084.19;5027665;28;20049;-64
2023/03/17 03:19:01;;;;;;;22.23;17.30;;;;;;;18.29;76.41;99094.00;5027823;28;20141;-65
2023/03/17 03:21:50;;;;;;;20.65;17.13;;;;;;;17.82;78.24;99099.28;5024154;28;20054;-64
2023/03/17 03:24:32;;;;;;;22.30;16.55;;;;;;;17.71;78.12;99099.25;5025105;28;20061;-64
2023/03/17 03:27:27;;;;;;;27.80;16.02;;;;;;;17.83;78.00;99108.97;5026915;28;20060;-63
2023/03/17 03:30:06;;;;;;;22.55;16.58;;;;;;;17.86;78.71;99123.75;5025845;28;20656;-64
2023/03/17 03:32:55;;;;;;;24.85;16.13;;;;;;;17.90;78.71;99120.41;5027089;28;20095;-63
2023/03/17 03:35:37;;;;;;;19.25;15.40;;;;;;;17.84;78.81;99132.03;5026680;28;20053;-65
2023/03/17 03:38:34;;;;;;;20.75;15.57;;;;;;;17.84;78.75;99137.38;5024835;28;20049;-64
2023/03/17 03:41:10;;;;;;;21.25;15.95;;;;;;;17.79;79.09;99145.28;5007424;28;20038;-64
2023/03/17 03:43:58;;;;;;;20.75;15.75;;;;;;;17.82;78.39;99152.88;5006240;28;20750;-64
2023/03/17 03:46:40;;;;;;;21.05;15.25;;;;;;;17.90;78.81;99149.88;5010538;28;20037;-63
2023/03/17 03:49:29;;;;;;;23.25;14.65;;;;;;;18.06;78.47;99153.75;5022050;28;20143;-64
2023/03/17 03:52:11;;;;;;;20.02;14.07;;;;;;;18.03;77.77;99166.81;5023765;28;20053;-64
2023/03/17 03:55:00;;;;;;;20.10;14.00;;;;;;;18.06;77.40;99166.34;5023473;28;20128;-64
2023/03/17 03:57:42;;;;;;;16.35;12.60;;;;;;;18.14;77.13;99158.81;5023119;28;20463;-64
2023/03/17 04:00:31;;;;;;;18.85;12.35;;;;;;;18.25;76.31;99155.31;5021663;28;20492;-63
2023/03/17 04:03:14;;;;;;;15.25;12.30;;;;;;;18.11;75.76;99148.53;5013932;28;20049;-63
2023/03/17 04:06:10;;;;;;;21.60;12.68;;;;;;;18.10;77.40;99144.19;5026686;28;20676;-64
2023/03/17 04:08:46;;;;;;;17.73;12.55;;;;;;;18.10;75.95;99148.78;5025864;28;20049;-63
2023/03/17 04:11:38;;;;;;;20.40;13.93;;;;;;;18.25;75.98;99152.63;5025275;28;20045;-66
2023/03/17 04:14:27;;;;;;;18.70;13.25;;;;;;;18.24;75.72;99144.81;5025498;28;20045;-64
2023/03/17 04:17:13;;;;;;;22.05;14.80;;;;;;;18.29;76.06;99150.31;5024824;28;20470;-64
2023/03/17 04:20:02;;;;;;;24.20;15.53;;;;;;;18.26;76.67;99148.09;5024140;28;20132;-64
2023/03/17 04:22:44;;;;;;;26.13;14.90;;;;;;;18.15;75.83;99151.56;5023610;28;20048;-63
2023/03/17 04:25:33;;;;;;;21.38;14.30;;;;;;;18.20;76.27;99151.69;5019972;28;20613;-63
2023/03/17 04:28:16;;;;;;;20.52;14.55;;;;;;;18.22;75.35;99155.78;5026023;28;20497;-64
2023/03/17 04:31:06;;;;;;;22.67;15.45;;;;;;;18.39;75.70;99150.56;5007548;28;20508;-63
2023/03/17 04:33:49;;;;;;;21.55;14.98;;;;;;;18.60;75.34;99154.56;5024716;28;20051;-64
2023/03/17 04:36:37;;;;;;;20.83;13.75;;;;;;;18.67;75.79;99153.41;5015910;28;20061;-63
2023/03/17 04:39:32;;;;;;;19.92;14.98;;;;;;;18.93;74.38;99156.66;5024424;28;20061;-63
2023/03/17 04:42:08;;;;;;;21.95;16.13;;;;;;;18.94;73.73;99160.97;5021667;28;20120;-63
2023/03/17 04:45:08;;;;;;;20.48;14.95;;;;;;;18.97;73.49;99163.19;5020722;28;20045;-64
2023/03/17 04:47:57;;;;;;;19.70;15.98;;;;;;;19.10;72.95;99169.13;4997082;28;20148;-64
2023/03/17 04:50:46;;;;;;;20.40;15.68;;;;;;;19.35;72.92;99173.38;5004401;28;20038;-63
2023/03/17 04:53:29;;;;;;;20.88;16.33;;;;;;;19.53;72.15;99179.44;5006449;28;20957;-64
2023/03/17 04:56:18;;;;;;;28.02;15.45;;;;;;;19.50;71.65;99184.47;5004954;28;20052;-63
2023/03/17 04:59:00;;;;;;;21.10;14.45;;;;;;;19.48;71.55;99184.69;5002750;28;20054;-64
2023/03/17 05:01:50;;;;;;;21.63;14.35;;;;;;;19.72;71.97;99188.97;5004703;28;20056;-63
2023/03/17 05:04:38;;;;;;;19.63;14.25;;;;;;;19.67;71.14;99185.34;5003209;28;20369;-65
2023/03/17 05:07:27;;;;;;;17.75;12.98;;;;;;;19.74;70.94;99194.91;5004252;28;21648;-64
2023/03/17 05:10:12;;;;;;;21.77;13.15;;;;;;;19.82;70.99;99196.41;5002861;28;20414;-65
2023/03/17 05:13:01;;;;;;;16.80;13.00;;;;;;;19.83;71.25;99192.63;5006343;28;20045;-64
2023/03/17 05:15:47;;;;;;;18.02;13.10;;;;;;;19.98;70.35;99192.94;5002361;28;20053;-65
2023/03/17 05:18:36;;;;;;;16.17;11.97;;;;;;;19.91;69.69;99197.66;5005643;28;20057;-65
2023/03/17 05:21:25;;;;;;;15.63;11.77;;;;;;;20.11;69.01;99191.81;5003771;28;20445;-61
2023/03/17 05:24:07;;;;;;;16.42;12.82;;;;;;;20.30;69.52;99193.28;4987616;28;20497;-61
2023/03/17 05:27:02;;;;;;;19.50;12.85;;;;;;;20.24;68.37;99179.94;5006010;28;20056;-61
2023/03/17 05:29:38;;;;;;;14.02;11.77;;;;;;;20.30;69.74;99179.00;5002947;28;20137;-62
2023/03/17 05:32:34;;;;;;;17.02;11.70;;;;;;;20.29;68.93;99182.72;5004341;28;20492;-64
2023/03/17 05:35:10;;;;;;;18.25;12.63;;;;;;;20.40;68.07;99187.25;5003178;28;20105;-63
2023/03/17 05:37:59;;;;;;;19.02;12.10;;;;;;;20.43;67.39;99187.56;5003353;28;20048;-62
2023/03/17 05:40:42;;;;;;;14.65;11.35;;;;;;;20.56;66.71;99184.56;5002818;28;20600;-66
2023/03/17 05:43:36;;;;;;;22.40;12.07;;;;;;;20.42;67.82;99180.56;5004120;28;20046;-65
2023/03/17 05:46:18;;;;;;;17.25;11.75;;;;;;;20.35;68.66;99187.97;5028222;28;20470;-66
2023/03/17 05:49:07;;;;;;;15.57;11.80;;;;;;;20.55;67.94;99190.16;5000810;28;20049;-60
2023/03/17 05:51:57;;;;;;;16.98;12.48;;;;;;;20.68;68.49;99197.09;5015354;28;20053;-64
2023/03/17 05:54:47;;;;;;;18.13;12.63;;;;;;;20.25;67.03;99182.38;5022718;28;20829;-64
2023/03/17 05:57:30;;;;;;;20.02;13.38;;;;;;;20.63;68.20;99187.06;5019118;28;20060;-63
2023/03/17 06:00:22;;;;;;;15.65;13.15;;;;;;;21.03;66.70;99179.59;5022943;28;20757;-63
2023/03/17 06:03:06;;;;;;;16.58;12.95;;;;;;;20.95;65.40;99192.66;5020627;28;20484;-63
2023/03/17 06:05:56;;;;;;;18.40;13.02;;;;;;;20.95;66.59;99179.19;5013555;28;20120;-62
2023/03/17 06:08:38;;;;;;;25.00;15.75;;;;;;;20.73;67.56;99187.22;5018185;28;20165;-63
2023/03/17 06:11:27;;;;;;;19.17;12.63;;;;;;;20.63;66.75;99182.50;5014986;28;20139;-62
2023/03/17 06:14:17;;;;;;;22.25;12.90;;;;;;;20.94;67.10;99180.25;5021790;28;20129;-61
2023/03/17 06:16:59;;;;;;;18.17;13.25;;;;;;;21.08;65.79;99181.53;5022183;28;20052;-64
2023/03/17 06:19:48;;;;;;;15.73;11.68;;;;;;;20.79;65.28;99169.28;5020073;28;20103;-62
2023/03/17 06:22:30;;;;;;;13.25;10.80;;;;;;;20.67;66.08;99165.88;5027565;28;20049;-63
2023/03/17 06:25:40;;;;;;;15.68;10.80;;;;;;;21.03;65.89;99170.69;5017523;28;20053;-63
2023/03/17 06:28:16;;;;;;;12.95;10.45;;;;;;;21.04;64.45;99164.25;5024090;28;20512;-64
2023/03/17 06:31:11;;;;;;;14.48;11.25;;;;;;;20.88;65.68;99159.72;5024061;28;20108;-63
2023/03/17 06:33:47;;;;;;;14.05;10.73;;;;;;;20.94;66.16;99156.03;5020738;28;20049;-64
2023/03/17 06:36:38;;;;;;;19.73;11.77;;;;;;;20.83;66.56;99152.38;5021716;28;20060;-63
2023/03/17 06:39:26;;;;;;;17.27;12.38;;;;;;;20.92;66.16;99148.22;5022747;28;20080;-63
2023/03/17 06:42:08;;;;;;;13.93;11.00;;;;;;;21.12;66.79;99150.34;5017856;28;20103;-65
2023/03/17 06:45:03;;;;;;;14.07;11.07;;;;;;;21.12;65.95;99142.25;5029472;28;20152;-62
2023/03/17 06:47:52;;;;;;;12.93;10.75;;;;;;;21.13;66.32;99137.72;5029036;28;20051;-63
2023/03/17 06:50:41;;;;;;;12.50;10.48;;;;;;;20.84;65.06;99135.19;5027697;28;20063;-62
2023/03/17 06:53:23;;;;;;;13.48;10.38;;;;;;;20.80;65.61;99133.22;5028771;28;20042;-64
2023/03/17 06:56:12;;;;;;;12.48;10.25;;;;;;;21.01;65.77;99125.16;5028803;28;20152;-63
2023/03/17 06:59:10;;;;;;;13.25;10.10;;;;;;;20.71;65.25;99124.75;5028943;28;20056;-65
2023/03/17 07:01:59;;;;;;;10.95;9.20;;;;;;;20.55;65.06;99123.72;5028621;28;20045;-63
2023/03/17 07:04:41;;;;;;;10.13;8.55;;;;;;;20.63;65.57;99117.91;5028671;28;20079;-63
2023/03/17 07:07:30;;;;;;;14.27;9.90;;;;;;;20.55;65.43;99117.50;5028671;28;20464;-65
2023/03/17 07:10:14;;;;;;;11.57;9.25;;;;;;;20.38;65.01;99109.47;5026646;28;20135;-64
2023/03/17 07:13:06;;;;;;;11.75;9.40;;;;;;;20.70;65.46;99109.66;5026755;28;20049;-63
2023/03/17 07:15:49;;;;;;;11.52;9.32;;;;;;;20.68;66.04;99105.56;5027520;28;20052;-63
2023/03/17 07:18:40;;;;;;;11.07;9.25;;;;;;;20.49;65.72;99100.47;5027555;28;20049;-64
2023/03/17 07:21:22;;;;;;;14.10;9.93;;;;;;;20.67;65.97;99101.28;5027304;28;20060;-64
2023/03/17 07:24:11;;;;;;;11.57;9.48;;;;;;;20.51;65.52;99087.59;5028270;28;20660;-63
2023/03/17 07:26:53;;;;;;;20.88;10.00;;;;;;;20.71;66.47;99089.78;5028959;28;20120;-63
2023/03/17 07:29:42;;;;;;;13.20;10.07;;;;;;;20.85;67.60;99095.56;5028493;28;20056;-64
2023/03/17 07:32:24;;;;;;;14.68;10.27;;;;;;;20.95;68.45;99082.25;5027454;28;20049;-66
2023/03/17 07:35:14;;;;;;;14.80;11.32;;;;;;;20.90;68.89;99082.19;5027895;28;20051;-63
2023/03/17 07:37:56;;;;;;;14.93;10.55;;;;;;;20.70;67.92;99076.53;5028658;28;20060;-62
2023/03/17 07:40:46;;;;;;;13.95;10.93;;;;;;;20.41;66.89;99071.28;5027908;28;20466;-62
2023/03/17 07:43:28;;;;;;;15.32;11.13;;;;;;;20.56;69.38;99068.84;5008893;28;20507;-63
2023/03/17 07:46:17;;;;;;;14.55;11.75;;;;;;;20.64;68.03;99067.59;5024143;28;20581;-64
2023/03/17 07:49:00;;;;;;;13.82;11.95;;;;;;;20.87;68.94;99070.06;5024939;28;20053;-64
2023/03/17 07:51:49;;;;;;;15.10;11.85;;;;;;;20.70;67.37;99055.00;5017575;28;20053;-63
2023/03/17 07:54:31;;;;;;;16.33;11.02;;;;;;;20.79;67.79;99057.03;5024630;28;20459;-63
2023/03/17 07:57:22;;;;;;;15.10;10.95;;;;;;;20.64;66.92;99046.06;5024878;28;20053;-64
2023/03/17 08:00:09;;;;;;;12.93;10.98;;;;;;;20.75;67.32;99047.81;5025184;28;20715;-64
2023/03/17 08:02:58;;;;;;;15.50;10.70;;;;;;;20.85;66.84;99044.41;5026513;28;20049;-63
2023/03/17 08:05:54;;;;;;;16.70;11.88;;;;;;;20.81;66.61;99046.00;5022692;28;20077;-64
2023/03/17 08:08:43;;;;;;;14.65;12.27;;;;;;;20.76;67.14;99045.91;5018229;28;20115;-63
2023/03/17 08:11:25;;;;;;;15.80;14.07;;;;;;;20.89;67.63;99040.19;5025183;28;20296;-64
2023/03/17 08:14:14;;;;;;;28.13;18.30;;;;;;;20.87;66.20;99040.44;5023789;28;20781;-64
2023/03/17 08:16:57;;;;;;;24.00;16.50;;;;;;;20.76;66.57;99032.47;5025238;28;20053;-63
2023/03/17 08:19:46;;;;;;;20.92;15.88;;;;;;;20.61;66.12;99028.53;5026036;28;20053;-64
2023/03/17 08:22:29;;;;;;;21.45;15.95;;;;;;;20.50;67.31;99021.38;5025568;28;20057;-64
2023/03/17 08:25:18;;;;;;;21.80;16.20;;;;;;;20.33;67.92;99025.97;5024456;28;20135;-63
2023/03/17 08:28:00;;;;;;;17.98;14.32;;;;;;;20.36;68.73;99021.97;5027194;28;20396;-63
2023/03/17 08:30:49;;;;;;;18.58;13.38;;;;;;;20.45;68.43;99010.53;5025686;28;20072;-62
2023/03/17 08:33:31;;;;;;;20.90;14.25;;;;;;;20.60;69.38;99007.25;5023384;28;20049;-64
2023/03/17 08:36:22;;;;;;;21.20;12.98;;;;;;;20.56;68.19;99001.56;5025933;28;20042;-64
2023/03/17 08:39:04;;;;;;;19.20;13.57;;;;;;;20.47;68.22;98997.66;5025684;28;20052;-64
2023/03/17 08:41:53;;;;;;;16.55;12.68;;;;;;;20.54;68.99;98994.78;5025939;28;20049;-63
2023/03/17 08:44:36;;;;;;;17.00;13.65;;;;;;;20.53;68.99;98990.47;5010764;28;20046;-65
2023/03/17 08:47:30;;;;;;;16.30;12.82;;;;;;;20.68;68.21;98995.22;5003192;28;20042;-66
2023/03/17 08:50:10;;;;;;;17.25;12.05;;;;;;;20.74;69.13;98992.34;5003698;28;20768;-64
2023/03/17 08:53:04;;;;;;;16.63;11.77;;;;;;;20.89;68.77;98989.03;5006344;28;20066;-65
2023/03/17 08:55:40;;;;;;;14.68;10.98;;;;;;;20.78;67.57;98993.47;5000538;28;20054;-63
2023/03/17 08:58:34;;;;;;;12.80;10.75;;;;;;;20.43;67.71;98985.78;5006646;28;20057;-64
2023/03/17 09:01:10;;;;;;;13.38;11.32;;;;;;;20.77;67.29;98989.16;4994831;28;20058;-63
2023/03/17 09:04:08;;;;;;;15.13;10.63;;;;;;;20.76;65.54;98984.00;5003371;28;20066;-65
2023/03/17 09:06:44;;;;;;;11.13;9.70;;;;;;;20.71;67.08;98981.28;4998472;28;20051;-63
2023/03/17 09:09:43;;;;;;;11.20;8.88;;;;;;;20.69;67.32;98978.81;4994615;28;20104;-64
2023/03/17 09:12:25;;;;;;;12.18;9.82;;;;;;;20.67;66.78;98982.84;5000417;28;20042;-64
2023/03/17 09:15:15;;;;;;;14.52;9.15;;;;;;;20.72;65.98;98972.13;4998069;28;20042;-64
2023/03/17 09:17:57;;;;;;;10.73;8.93;;;;;;;20.68;66.49;98969.13;5008815;28;20050;-62
2023/03/17 09:20:52;;;;;;;12.57;9.13;;;;;;;20.80;66.51;98959.03;5004208;28;20080;-63
2023/03/17 09:23:28;;;;;;;12.98;9.25;;;;;;;20.85;66.33;98953.69;4992231;28;20069;-63
2023/03/17 09:26:19;;;;;;;13.10;9.60;;;;;;;20.63;66.32;98940.25;5012500;28;20049;-63
2023/03/17 09:29:07;;;;;;;14.75;9.88;;;;;;;20.52;66.15;98940.41;5007522;28;20136;-62
2023/03/17 09:31:49;;;;;;;14.27;10.65;;;;;;;20.47;66.07;98934.97;5005971;28;20064;-64
2023/03/17 09:34:38;;;;;;;11.55;9.52;;;;;;;20.36;66.93;98934.00;5004595;28;20532;-62
2023/03/17 09:37:21;;;;;;;13.95;10.00;;;;;;;20.46;67.93;98923.38;4999638;28;20046;-63
2023/03/17 09:40:11;;;;;;;13.82;10.80;;;;;;;20.61;68.62;98920.88;5003791;28;20136;-63
2023/03/17 09:43:20;;;;;;;18.42;11.10;;;;;;;20.64;67.31;98911.47;5004064;28;20074;-64
2023/03/17 09:46:27;;;;;;;17.67;11.40;;;;;;;20.63;67.12;98913.34;5005331;28;20057;-64
2023/03/17 09:49:26;;;;;;;13.95;9.70;;;;;;;20.36;66.87;98900.91;5010379;28;20535;-62
2023/03/17 09:52:19;;;;;;;10.85;8.63;;;;;;;20.35;67.29;98916.25;5007824;28;20049;-63
2023/03/17 09:55:19;;;;;;;12.63;7.93;;;;;;;20.52;66.01;98914.31;4997483;28;20104;-65
2023/03/17 09:58:09;;;;;;;10.68;7.00;;;;;;;20.56;65.91;98915.44;5008843;28;20056;-66
2023/03/17 10:00:51;;;;;;;9.90;7.25;;;;;;;20.61;65.71;98915.50;5012514;28;20056;-64
2023/03/17 10:03:41;;;;;;;13.43;8.18;;;;;;;20.40;64.50;98916.28;5009533;28;20046;-63
2023/03/17 10:06:35;;;;;;;12.15;8.13;;;;;;;20.51;64.51;98912.69;5007847;28;20046;-63
2023/03/17 10:09:43;;;;;;;9.25;7.50;;;;;;;20.52;63.68;98908.13;5010720;28;20050;-65
2023/03/17 10:12:44;;;;;;;8.82;6.47;;;;;;;20.25;64.37;98912.59;5009391;28;20046;-63
2023/03/17 10:16:09;;;;;;;8.52;6.45;;;;;;;20.12;65.65;98905.69;5008271;28;20467;-62
2023/03/17 10:18:59;;;;;;;7.75;6.40;;;;;;;20.04;65.70;98903.44;4960061;28;20054;-63
2023/03/17 10:22:01;;;;;;;9.15;7.10;;;;;;;20.02;65.78;98901.00;4996419;28;20100;-66
2023/03/17 10:24:48;;;;;;;13.65;7.20;;;;;;;20.19;66.18;98890.19;5026517;28;20073;-62
2023/03/17 10:27:42;;;;;;;12.80;7.50;;;;;;;20.30;65.95;98888.47;5014767;28;20046;-63
2023/03/17 10:30:26;;;;;;;9.77;7.40;;;;;;;20.19;65.26;98884.81;5020797;28;20053;-65
2023/03/17 10:33:14;;;;;;;12.25;7.15;;;;;;;20.21;66.08;98885.38;5029619;28;20159;-63
2023/03/17 10:36:05;;;;;;;10.80;7.78;;;;;;;20.02;65.98;98884.88;5027760;28;20040;-63
2023/03/17 10:38:58;;;;;;;9.90;7.50;;;;;;;19.94;66.42;98887.16;5024965;28;20050;-67
2023/03/17 10:41:53;;;;;;;16.45;8.82;;;;;;;20.07;66.54;98886.81;5015110;28;20389;-64
2023/03/17 10:44:46;;;;;;;16.30;9.80;;;;;;;20.06;67.66;98879.81;5009923;28;20050;-65
2023/03/17 10:47:43;;;;;;;14.75;8.95;;;;;;;20.11;66.82;98875.31;5009034;28;20046;-63
2023/03/17 10:50:45;;;;;;;11.75;7.50;;;;;;;20.02;66.78;98875.97;5014313;28;20400;-63
2023/03/17 10:53:29;;;;;;;11.73;7.53;;;;;;;19.79;66.53;98879.69;5013512;28;20145;-62
2023/03/17 10:56:32;;;;;;;8.77;6.22;;;;;;;19.80;66.03;98872.44;5027579;28;20050;-64
2023/03/17 10:59:18;;;;;;;8.45;6.22;;;;;;;19.77;67.12;98867.59;5011993;28;20454;-63
2023/03/17 11:02:36;;;;;;;9.15;6.45;;;;;;;19.98;67.15;98864.09;5028254;28;20049;-66
2023/03/17 11:05:22;;;;;;;14.57;7.47;;;;;;;20.06;67.70;98860.97;5008152;28;20060;-63
2023/03/17 11:08:24;;;;;;;10.85;8.00;;;;;;;19.99;67.53;98849.59;5017184;28;20435;-63
2023/03/17 11:11:04;;;;;;;13.65;9.40;;;;;;;19.93;66.93;98846.03;4998699;28;20049;-63
2023/03/17 11:14:21;;;;;;;15.57;9.55;;;;;;;19.96;67.17;98839.34;5003648;28;20059;-64
2023/03/17 11:17:26;;;;;;;22.90;11.18;;;;;;;19.83;66.98;98831.63;5008619;28;20677;-64
2023/03/17 11:20:33;;;;;;;17.40;11.35;;;;;;;19.92;67.07;98840.88;5018109;28;20354;-63
2023/03/17 11:23:30;;;;;;;19.13;11.73;;;;;;;19.89;66.95;98833.34;5028530;28;20444;-62
2023/03/17 11:26:44;;;;;;;18.52;9.65;;;;;;;19.86;68.32;98837.34;5015344;28;20719;-62
2023/03/17 11:30:00;;;;;;;15.85;10.65;;;;;;;19.82;67.65;98832.72;5021901;28;20046;-64
2023/03/17 11:32:56;;;;;;;23.92;12.10;;;;;;;19.83;68.64;98832.44;5006713;28;20046;-64
2023/03/17 11:35:37;;;;;;;24.20;11.60;;;;;;;19.71;68.11;98835.25;5013834;28;20046;-65
2023/03/17 11:38:44;;;;;;;17.40;10.70;;;;;;;19.59;68.11;98825.69;5009050;28;20041;-64
2023/03/17 11:41:45;;;;;;;21.17;9.70;;;;;;;19.54;69.37;98831.78;5010800;28;20508;-64
2023/03/17 11:45:02;;;;;;;13.88;8.32;;;;;;;19.41;69.33;98823.22;5019593;28;20637;-65
2023/03/17 11:48:30;;;;;;;9.35;7.05;;;;;;;19.42;68.64;98814.94;5006784;28;20326;-63
2023/03/17 11:51:42;;;;;;;10.85;7.50;;;;;;;19.30;70.23;98815.03;5007287;28;20045;-63
2023/03/17 11:54:29;;;;;;;;;;;;;;;19.48;70.32;98815.84;5008219;28;20336;-64
2023/03/17 11:57:31;;;;;;;15.77;8.18;;;;;;;19.43;70.39;98815.75;5007026;28;20321;-63
2023/03/17 12:00:33;;;;;;;15.75;10.07;;;;;;;19.49;71.20;98815.59;5004391;28;20753;-63
2023/03/17 12:03:48;;;;;;;19.65;12.13;;;;;;;19.38;71.45;98813.81;5006267;28;20058;-64
2023/03/17 12:06:51;;;;;;;18.55;12.52;;;;;;;19.47;71.68;98825.75;5007593;28;20054;-62
2023/03/17 12:09:51;;;;;;;22.25;12.95;;;;;;;19.52;70.86;98825.03;4990296;28;20050;-64
2023/03/17 12:12:41;;;;;;;18.73;13.52;;;;;;;19.48;70.98;98823.91;5003096;28;20053;-63
2023/03/17 12:16:05;;;;;;;19.90;12.55;;;;;;;19.23;71.26;98814.38;5007533;28;20120;-63
2023/03/17 12:19:12;;;;;;;22.15;13.10;;;;;;;19.24;71.06;98812.53;4999358;28;20061;-63
2023/03/17 12:22:13;;;;;;;15.43;10.73;;;;;;;19.29;71.58;98817.97;5002028;28;20037;-64
2023/03/17 12:25:33;;;;;;;19.38;12.50;;;;;;;19.12;71.27;98823.31;4988098;28;20057;-64
2023/03/17 12:28:32;;;;;;;17.67;13.45;;;;;;;19.09;72.09;98826.50;4993907;28;20050;-63
2023/03/17 12:31:27;;;;;;;18.20;13.32;;;;;;;19.27;72.95;98836.19;5005611;28;20049;-63
2023/03/17 12:34:17;;;;;;;17.48;12.55;;;;;;;19.05;73.23;98825.38;5003855;28;20558;-62
2023/03/17 12:37:00;;;;;;;17.15;12.77;;;;;;;18.92;73.10;98833.75;5007560;28;20046;-63
2023/03/17 12:39:57;;;;;;;16.10;11.40;;;;;;;19.11;74.21;98837.00;5007278;28;20117;-63
2023/03/17 12:42:52;;;;;;;17.40;11.38;;;;;;;19.05;73.17;98838.78;5000184;28;20701;-63
2023/03/17 12:45:48;;;;;;;15.82;11.85;;;;;;;19.11;73.09;98837.00;5007733;28;20057;-63
2023/03/17 12:48:49;;;;;;;13.80;10.65;;;;;;;19.09;73.86;98842.63;5013349;28;21299;-63
2023/03/17 12:52:03;;;;;;;15.65;10.90;;;;;;;19.13;72.35;98834.88;4992676;28;20769;-64
2023/03/17 12:54:50;;;;;;;13.57;10.40;;;;;;;19.19;73.75;98844.66;4990870;28;20100;-62
2023/03/17 12:58:03;;;;;;;15.18;12.13;;;;;;;18.92;73.49;98843.66;4989311;28;20451;-62
2023/03/17 13:01:08;;;;;;;21.30;11.63;;;;;;;19.15;74.70;98848.88;5006627;28;20058;-62
2023/03/17 13:04:23;;;;;;;14.95;10.73;;;;;;;18.94;73.92;98853.09;5009058;28;20046;-63
2023/03/17 13:07:22;;;;;;;17.85;11.95;;;;;;;18.90;73.91;98856.53;4989999;28;20145;-63
2023/03/17 13:10:42;;;;;;;;;;;;;;;19.20;74.45;98854.34;4989389;28;20452;-59
2023/03/17 13:13:46;;;;;;;20.13;12.25;;;;;;;19.67;73.01;98850.25;4665799;28;9999813;-64
2023/03/17 13:16:35;;;;;;;16.27;11.48;;;;;;;20.05;72.01;98851.28;5006161;28;20053;-62
2023/03/17 13:19:26;;;;;;;20.23;12.05;;;;;;;20.41;70.51;98844.47;5007082;28;20048;-62
2023/03/17 13:22:15;;;;;;;30.13;14.30;;;;;;;20.43;69.98;98843.19;5026257;28;20499;-61
2023/03/17 13:25:12;;;;;;;18.58;13.02;;;;;;;20.43;70.10;98837.78;5018188;28;20077;-63
2023/03/17 13:28:46;;;;;;;25.88;15.43;;;;;;;20.12;70.88;98838.47;5006613;28;20054;-62
2023/03/17 13:31:35;;;;;;;25.77;15.20;;;;;;;20.42;69.63;98833.47;5025298;28;20155;-64
2023/03/17 13:34:26;;;;;;;38.83;18.40;;;;;;;20.68;68.48;98833.72;5010714;28;20330;-65
2023/03/17 13:37:29;;;;;;;25.83;13.52;;;;;;;20.90;66.09;98834.47;4986306;28;20058;-63
2023/03/17 13:40:24;;;;;;;29.20;16.23;;;;;;;20.73;68.88;98836.47;5010087;28;20128;-60
2023/03/17 13:43:30;;;;;;;24.30;13.75;;;;;;;20.73;66.47;98841.84;5008513;28;20496;-63
2023/03/17 13:46:45;;;;;;;34.72;19.25;;;;;;;20.00;69.70;98837.78;4668720;28;10000517;-66
2023/03/17 13:49:28;;;;;;;28.20;18.13;;;;;;;20.12;70.73;98841.16;5006347;28;20736;-62
2023/03/17 13:52:27;;;;;;;25.67;16.23;;;;;;;20.50;68.50;98830.31;5022268;28;20042;-58
2023/03/17 13:55:25;;;;;;;32.60;18.98;;;;;;;19.70;70.03;98832.81;5020809;28;20061;-61
2023/03/17 13:58:28;;;;;;;22.50;14.95;;;;;;;19.96;72.45;98825.91;4982363;28;20069;-60
2023/03/17 14:01:06;;;;;;;26.15;17.63;;;;;;;19.62;71.04;98828.69;5000625;28;20046;-64
2023/03/17 14:03:55;;;;;;;33.85;17.50;;;;;;;19.53;71.71;98824.78;5003557;28;20533;-63
2023/03/17 14:06:42;;;;;;;28.10;17.52;;;;;;;19.61;71.59;98821.69;5003351;28;20115;-63
2023/03/17 14:09:43;;;;;;;30.77;17.77;;;;;;;19.50;71.61;98825.28;5006172;28;20420;-61
2023/03/17 14:12:19;;;;;;;26.73;16.45;;;;;;;19.90;71.66;98829.59;5003658;28;20053;-61
2023/03/17 14:15:32;;;;;;;21.70;14.55;;;;;;;20.52;70.20;98828.22;5021812;28;20112;-61
2023/03/17 14:18:18;;;;;;;28.60;17.27;;;;;;;20.23;68.44;98826.75;5005690;28;20046;-62
2023/03/17 14:21:23;;;;;;;24.45;16.55;;;;;;;19.91;70.39;98823.97;5000498;28;20050;-62
2023/03/17 14:24:20;;;;;;;30.67;17.00;;;;;;;19.33;71.42;98821.78;4986093;28;20096;-64
2023/03/17 14:27:18;;;;;;;27.73;18.33;;;;;;;19.09;72.22;98814.94;5002734;28;20088;-64
2023/03/17 14:29:54;;;;;;;25.98;17.15;;;;;;;19.13;73.05;98818.78;5005420;28;20056;-64
2023/03/17 14:33:00;;;;;;;32.05;17.17;;;;;;;19.18;72.49;98810.81;5008726;28;20140;-65
2023/03/17 14:35:45;;;;;;;29.42;17.35;;;;;;;18.98;72.89;98813.19;4988894;28;20105;-63
2023/03/17 14:38:37;;;;;;;31.33;17.75;;;;;;;18.85;73.63;98812.41;5001660;28;20045;-63
2023/03/17 14:41:30;;;;;;;29.15;18.05;;;;;;;18.92;73.92;98827.56;5000253;28;20819;-65
2023/03/17 14:44:25;;;;;;;32.17;17.73;;;;;;;19.11;73.79;98813.66;5005977;28;20050;-63
2023/03/17 14:47:04;;;;;;;21.95;15.88;;;;;;;19.36;74.64;98821.28;4997225;28;20033;-62
2023/03/17 14:49:54;;;;;;;33.60;20.13;;;;;;;19.21;73.36;98815.66;5004650;28;20503;-62
2023/03/17 14:52:42;;;;;;;31.38;18.00;;;;;;;19.60;73.96;98819.25;4982770;28;20050;-65
2023/03/17 14:55:42;;;;;;;38.42;19.95;;;;;;;19.61;72.49;98826.22;4993460;28;20348;-62